Flight Track Log - Related Links

Times and Time Zones

All times are in EDT time to prevent confusion due to time zone crossing. See the SWA3943 flight status page for this flight to view local times or setup timezone preferences in your user account.

Time Position Orientation Groundspeed Altitude Reporting Facility
EDT Latitude Longitude Course Direction KTS MPH feet Rate Location/Type
Wed 05:42:05 PM 28.4500 -81.3167 360° North 170 196 1,000  Level Orlando TRACON
Wed 05:42:29 PM 28.4667 -81.3167 360° North 176 203 1,400 1,929 Climbing Orlando TRACON
Wed 05:43:29 PM 28.5333 -81.3167 360° North 241 277 3,700 2,440 Climbing Orlando TRACON
Wed 05:45:31 PM 28.6628 -81.3831 336° Northwest 293 337 8,800 2,308 Climbing Jacksonville Center
Wed 05:46:31 PM 28.7425 -81.4197 338° Northwest 293 337 10,700 2,200 Climbing Jacksonville Center
Wed 05:47:31 PM 28.8308 -81.4706 333° Northwest 320 368 13,200 2,650 Climbing Jacksonville Center
Wed 05:48:31 PM 28.9269 -81.4978 346° North 345 397 16,000 2,300 Climbing Jacksonville Center
Wed 05:49:31 PM 29.0256 -81.5294 344° North 356 410 17,800 1,850 Climbing Jacksonville Center
Wed 05:50:31 PM 29.1281 -81.5589 346° North 367 422 19,700 1,850 Climbing Jacksonville Center
Wed 05:51:31 PM 29.2306 -81.5933 344° North 372 428 21,500 1,750 Climbing Jacksonville Center
Wed 05:52:31 PM 29.3353 -81.6278 344° North 383 441 23,200 1,450 Climbing Jacksonville Center
Wed 05:53:31 PM 29.4464 -81.6572 347° North 388 447 24,400 1,150 Climbing Jacksonville Center
Wed 05:54:31 PM 29.5594 -81.6942 344° North 401 461 25,500 1,400 Climbing Jacksonville Center
Wed 05:55:31 PM 29.6786 -81.7142 352° North 418 481 27,200 1,400 Climbing Jacksonville Center
Wed 05:56:31 PM 29.7997 -81.7244 356° North 426 490 28,300 1,400 Climbing Jacksonville Center
Wed 05:57:31 PM 29.9231 -81.7375 355° North 432 497 30,000 1,500 Climbing Jacksonville Center
Wed 05:58:31 PM 30.0400 -81.7481 356° North 432 497 31,300 1,200 Climbing Jacksonville Center
Wed 05:59:31 PM 30.1614 -81.7611 355° North 432 497 32,400 1,300 Climbing Jacksonville Center
Wed 06:00:31 PM 30.2783 -81.7717 356° North 427 491 33,900 1,150 Climbing Jacksonville Center
Wed 06:01:31 PM 30.3933 -81.7847 354° North 422 486 34,700 550 Climbing Jacksonville Center
Wed 06:02:31 PM 30.5125 -81.7978 355° North 422 486 35,000 150 Climbing Jacksonville Center
Wed 06:03:31 PM 30.6211 -81.8158 352° North 441 507 35,000  Level Jacksonville Center
Wed 06:04:31 PM 30.7403 -81.8292 355° North 441 507 35,000  Level Jacksonville Center
Wed 06:05:31 PM 30.8594 -81.8422 355° North 430 495 35,000  Level Jacksonville Center
Wed 06:06:31 PM 30.9742 -81.8556 354° North 425 489 35,000  Level Jacksonville Center
Wed 06:07:32 PM 31.0914 -81.8664 355° North 425 489 35,000  Level Jacksonville Center
Wed 06:08:31 PM 31.2083 -81.8822 353° North 425 489 35,000  Level Jacksonville Center
Wed 06:09:31 PM 31.3275 -81.8953 355° North 425 489 35,000  Level Jacksonville Center
Wed 06:10:31 PM 31.4444 -81.9039 356° North 418 481 35,000  Level Jacksonville Center
Wed 06:11:31 PM 31.5761 -81.9197 354° North 425 489 35,000  Level Jacksonville Center
Wed 06:12:31 PM 31.6828 -81.9306 355° North 425 489 35,000  Level Jacksonville Center
Wed 06:13:31 PM 31.8122 -81.9464 354° North 425 489 35,000  Level Jacksonville Center
Wed 06:14:31 PM 31.9292 -81.9600 354° North 425 489 35,000  Level Jacksonville Center
Wed 06:16:17 PM 32.1303 -81.9836 354° North 441 507 35,000  Level Atlanta Center
Wed 06:17:17 PM 32.2578 -81.9953 356° North 436 502 35,000  Level Atlanta Center
Wed 06:18:17 PM 32.3728 -82.0075 355° North 420 483 35,000  Level Atlanta Center
Wed 06:19:17 PM 32.4919 -82.0219 354° North 420 483 35,000 50 Level Atlanta Center
Wed 06:20:17 PM 32.6111 -82.0367 354° North 425 489 35,100 650 Climbing Atlanta Center
Wed 06:21:17 PM 32.7242 -82.0489 355° North 425 489 36,300 950 Climbing Atlanta Center
Wed 06:22:17 PM 32.8433 -82.0633 354° North 425 489 37,000 350 Climbing Atlanta Center
Wed 06:23:17 PM 32.9583 -82.0781 354° North 425 489 37,000  Level Atlanta Center
Wed 06:24:17 PM 33.0753 -82.0878 356° North 425 489 37,000  Level Atlanta Center
Wed 06:25:17 PM 33.1903 -82.1028 354° North 425 489 37,000  Level Atlanta Center
Wed 06:26:17 PM 33.3075 -82.1150 355° North 420 483 37,000  Level Atlanta Center
Wed 06:27:17 PM 33.4244 -82.1297 354° North 420 483 37,000  Level Atlanta Center
Wed 06:28:17 PM 33.5333 -82.1397 356° North 427 491 37,000  Level Atlanta Center
Wed 06:29:17 PM 33.6503 -82.1522 355° North 427 491 37,000  Level Atlanta Center
Wed 06:30:17 PM 33.7714 -82.1494 North 427 491 37,000  Level Atlanta Center
Wed 06:31:17 PM 33.8900 -82.1294 North 422 486 37,000  Level Atlanta Center
Wed 06:32:17 PM 34.0108 -82.1092 North 427 491 37,000  Level Atlanta Center
Wed 06:33:17 PM 34.1297 -82.1014 North 427 491 37,000  Level Atlanta Center
Wed 06:34:17 PM 34.2486 -82.1011 360° North 421 484 37,000  Level Atlanta Center
Wed 06:35:17 PM 34.3675 -82.1011 360° North 421 484 37,000  Level Atlanta Center
Wed 06:36:17 PM 34.4989 -82.0956 North 421 484 37,000  Level Atlanta Center
Wed 06:37:17 PM 34.6158 -82.0953 360° North 421 484 37,000  Level Atlanta Center
Wed 06:38:17 PM 34.7325 -82.0925 North 421 484 37,000  Level Atlanta Center
Wed 06:39:17 PM 34.8494 -82.0897 North 421 484 37,000  Level Atlanta Center
Wed 06:40:17 PM 34.9539 -82.0950 358° North 421 484 37,000  Level Atlanta Center
Wed 06:41:17 PM 35.0706 -82.0922 North 421 484 37,000  Level Atlanta Center
Wed 06:42:17 PM 35.1978 -82.0919 360° North 421 484 37,000  Level Atlanta Center
Wed 06:43:17 PM 35.3147 -82.0892 North 421 484 37,000  Level Atlanta Center
Wed 06:44:17 PM 35.4294 -82.0864 North 421 484 37,000  Level Atlanta Center
Wed 06:45:17 PM 35.5464 -82.0861 360° North 421 484 37,000  Level Atlanta Center
Wed 06:46:17 PM 35.6650 -82.0833 North 421 484 37,000  Level Atlanta Center
Wed 06:47:17 PM 35.7778 -82.0831 360° North 414 476 37,000  Level Atlanta Center
Wed 06:48:17 PM 35.8861 -82.0781 North 419 482 37,000  Level Atlanta Center
Wed 06:49:17 PM 36.0050 -82.0750 North 419 482 37,000  Level Atlanta Center
Wed 06:50:17 PM 36.1197 -82.0750 360° North 419 482 37,000  Level Atlanta Center
Wed 06:51:17 PM 36.2386 -82.0719 North 424 488 37,000  Level Atlanta Center
Wed 06:52:17 PM 36.3636 -82.0664 North 412 474 37,000  Level Atlanta Center
Wed 06:53:17 PM 36.4844 -82.0661 360° North 419 482 37,000  Level Atlanta Center
Wed 06:55:28 PM 36.7347 -82.0606 North 431 496 37,000  Level Indianapolis Center
Wed 06:56:30 PM 36.8564 -82.0578 North 436 502 37,000  Level Indianapolis Center
Wed 06:57:31 PM 36.9964 -82.0558 North 433 498 37,000  Level Indianapolis Center
Wed 06:58:33 PM 37.1158 -82.0561 360° North 431 496 37,000  Level Indianapolis Center
Wed 06:59:35 PM 37.2350 -82.0606 358° North 430 495 37,000  Level Indianapolis Center
Wed 07:00:36 PM 37.3539 -82.0614 360° North 429 494 37,000  Level Indianapolis Center
Wed 07:01:38 PM 37.4714 -82.0636 359° North 424 488 37,000  Level Indianapolis Center
Wed 07:02:40 PM 37.5886 -82.0653 359° North 422 486 37,000 -780 Level Indianapolis Center
Wed 07:03:41 PM 37.7239 -82.0681 359° North 417 480 35,400 -2,146 Descending Indianapolis Center
Wed 07:04:43 PM 37.8386 -82.0706 359° North 415 478 32,600 -2,129 Descending Indianapolis Center
Wed 07:05:45 PM 37.9517 -82.0719 359° North 414 476 31,000 -780 Descending Indianapolis Center
Wed 07:06:46 PM 38.0656 -82.0736 359° North 410 472 31,000  Level Indianapolis Center
Wed 07:07:48 PM 38.1839 -82.0753 359° North 419 482 31,000  Level Indianapolis Center
Wed 07:08:50 PM 38.3042 -82.0772 359° North 428 493 31,000  Level Indianapolis Center
Wed 07:09:51 PM 38.4286 -82.0814 358° North 440 506 31,000 -146 Level Indianapolis Center
Wed 07:10:53 PM 38.5514 -82.0831 359° North 436 502 30,700 -1,161 Descending Indianapolis Center
Wed 07:11:55 PM 38.6669 -82.0850 359° North 415 478 28,600 -2,244 Descending Indianapolis Center
Wed 07:12:56 PM 38.8000 -82.0872 359° North 395 455 26,100 -2,195 Descending Indianapolis Center
Wed 07:13:58 PM 38.9056 -82.0908 358° North 378 435 24,100 -1,694 Descending Indianapolis Center
Wed 07:15:00 PM 39.0000 -82.1247 344° North 354 407 22,600 -1,659 Descending Indianapolis Center
Wed 07:16:01 PM 39.0931 -82.1619 343° North 349 402 20,700 -1,805 Descending Indianapolis Center
Wed 07:17:03 PM 39.1831 -82.1983 343° North 339 390 18,900 -1,694 Descending Indianapolis Center
Wed 07:18:05 PM 39.2744 -82.2336 343° North 340 391 17,200 -1,871 Descending Indianapolis Center
Wed 07:18:36 PM 39.3292 -82.2575 341° North 337 388 16,000 -1,869 Descending Indianapolis Center
Wed 07:19:06 PM 39.3633 -82.2689 346° North 335 386 15,300 -1,630 Descending Indianapolis Center
Wed 07:20:08 PM 39.4511 -82.3036 343° North 327 376 13,500 -1,805 Descending Indianapolis Center
Wed 07:21:09 PM 39.5411 -82.3406 342° North 338 389 11,600 -1,268 Descending Indianapolis Center
Wed 07:22:11 PM 39.6381 -82.3897 339° North 315 362 10,900 -341 Descending Indianapolis Center
Wed 07:23:12 PM 39.7147 -82.4342 336° Northwest 302 348 10,900 -677 Level Indianapolis Center
Wed 07:24:15 PM 39.7922 -82.4794 336° Northwest 300 345 9,500 -1,355 Descending Indianapolis Center
Wed 07:25:16 PM 39.8342 -82.5686 302° West 297 342 8,100 -1,328 Descending Indianapolis Center
Wed 07:26:17 PM 39.8689 -82.6572 297° West 276 318 6,800 -1,073 Descending Indianapolis Center
Wed 07:27:19 PM 39.8878 -82.7481 285° West 258 297 5,900 -439 Descending Indianapolis Center
Wed 07:28:20 PM 39.8961 -82.8414 277° West 258 297 5,900 -250 Level Indianapolis Center
Wed 07:29:19 PM 39.9058 -82.9453 277° West 263 303 5,400 -927 Descending Indianapolis Center
Wed 07:30:23 PM 39.9161 -83.0308 279° West 262 302 4,000 -793 Descending Indianapolis Center
Wed 07:31:20 PM 39.9753 -83.0650 336° Northwest 230 265 3,800 -712 Descending Indianapolis Center
Wed 07:32:21 PM 40.0031 -83.0244 48° Northeast 163 188 2,600 -1,031 Descending Indianapolis Center
Wed 07:33:28 PM 39.9975 -82.9647 97° East 161 185 1,600 -787 Descending Indianapolis Center
Wed 07:34:23 PM 39.9958 -82.9175 93° East 130 150 1,000 -655 Descending Indianapolis Center

Login

Don't have an account? Register now (free) for customized features, flight alerts, and more!